Carnival Liberty — HPYE — position and weather

sailwx.info

Track history (hours):
 
Tides and Currents Weather Stations Pressure Air Temp Water Temp Dewpoint Dewpoint Depression Visibility Wind Speed Wind Dir Waves Ship Positions

Carnival Liberty

Last reported at 2016-Nov-30 11:00 UTC. Time now 2016-Dec-03 19:44 UTC.
Position N 23°54' W 088°18'.

Type: Ship. MMSI: 371083000.

Wind from 150 at 20 knots

Barometer 1015.0 mb
Air temperature 22.0 ° C
Visibility: greater than 10.8 NM
Dewpoint 15.4 ° C
Water temperature 23.0 ° C

Date/timePositionNaut miles runAvg speedWind from/ knotsBaromVisibWave heightAir tempDewpointWater temp
2016-Nov-30 11:00N 23°54' W 088°18'21016.9 150 / 201015.010.8 22.015.423.0
2016-Nov-29 22:34N 20°38' W 086°56'10 9.4
2016-Nov-29 21:31N 20°29' W 086°59'0 0.0
2016-Nov-29 20:31N 20°29' W 086°59'0 0.0
2016-Nov-29 19:33N 20°29' W 086°59'0 0.0
2016-Nov-29 18:30N 20°29' W 086°59'0 0.0
2016-Nov-29 17:32N 20°29' W 086°59'0 0.0
2016-Nov-29 16:32N 20°29' W 086°59'0 0.0
2016-Nov-29 15:31N 20°29' W 086°59'0 0.0
2016-Nov-29 14:31N 20°29' W 086°59'0 0.0
2016-Nov-29 13:28N 20°29' W 086°59'0 0.0
2016-Nov-29 06:34N 20°29' W 086°59'0 0.0
2016-Nov-29 05:33N 20°29' W 086°59'0 0.0
2016-Nov-29 04:30N 20°29' W 086°59'0 0.0
2016-Nov-29 03:32N 20°29' W 086°59'0 0.0
2016-Nov-29 02:32N 20°29' W 086°59'0 0.0
2016-Nov-29 01:31N 20°29' W 086°59'0 0.0
2016-Nov-29 00:31N 20°29' W 086°59'0 0.0
2016-Nov-28 23:33N 20°29' W 086°59'0 0.0
2016-Nov-28 22:33N 20°29' W 086°59'0 0.1
2016-Nov-28 21:33N 20°29' W 086°59'6 6.0
2016-Nov-28 20:33N 20°35' W 086°59'48014.7
2016-Nov-27 12:00N 27°12' W 091°54'19515.5 070 / 201020.010.8 20.016.719.0
2016-Nov-26 23:22N 29°20' W 094°41'6 1.0
2016-Nov-26 17:13N 29°19' W 094°48'0 0.0
2016-Nov-26 12:31N 29°19' W 094°48'55511.4
2016-Nov-24 12:00N 22°42' W 087°36'12911.9 050 / 201020.010.8 25.022.025.0
2016-Nov-24 01:08N 20°39' W 086°55'915.6
2016-Nov-24 00:33N 20°31' W 086°60'2 2.5
2016-Nov-23 23:33N 20°29' W 086°59'0 0.0
2016-Nov-23 22:32N 20°29' W 086°59'0 0.0
2016-Nov-23 21:33N 20°29' W 086°59'0 0.0
2016-Nov-23 20:32N 20°29' W 086°59'0 0.0
2016-Nov-23 19:32N 20°29' W 086°59'0 0.0
2016-Nov-23 18:31N 20°29' W 086°59'0 0.0
2016-Nov-23 17:31N 20°29' W 086°59'0 0.0
2016-Nov-23 16:33N 20°29' W 086°59'0 0.0
2016-Nov-23 15:33N 20°29' W 086°59'0 0.0
2016-Nov-23 14:33N 20°29' W 086°59'0 0.0
2016-Nov-23 13:32N 20°29' W 086°59'0 0.0
2016-Nov-23 12:34N 20°29' W 086°59'6 5.5
2016-Nov-23 11:33N 20°32' W 087°03'8 0.3
2016-Nov-22 03:14N 20°25' W 087°08'913.0
2016-Nov-22 02:33N 20°31' W 087°01'17712.2
2016-Nov-21 12:00N 23°18' W 088°06'37616.4 070 / 161020.010.8 22.018.924.0
2016-Nov-20 13:00N 28°00' W 092°42'   030 / 251018.010.8 16.0 2.826.0
Track history (hours):
 
Tides and Currents Weather Stations Pressure Air Temp Water Temp Dewpoint Dewpoint Depression Visibility Wind Speed Wind Dir Waves Ship Positions

Carnival Liberty

Last reported at 2016-Nov-30 11:00 UTC. Time now 2016-Dec-03 19:44 UTC.
Position N 23°54' W 088°18'.

Type: Ship. MMSI: 371083000.

Wind from 150 at 20 knots

Barometer 1015.0 mb
Air temperature 22.0 ° C
Visibility: greater than 10.8 NM
Dewpoint 15.4 ° C
Water temperature 23.0 ° C

Date/timePositionNaut miles runAvg speedWind from/ knotsBaromVisibWave heightAir tempDewpointWater temp
2016-Nov-30 11:00N 23°54' W 088°18'21016.9 150 / 201015.010.8 22.015.423.0
2016-Nov-29 22:34N 20°38' W 086°56'10 9.4
2016-Nov-29 21:31N 20°29' W 086°59'0 0.0
2016-Nov-29 20:31N 20°29' W 086°59'0 0.0
2016-Nov-29 19:33N 20°29' W 086°59'0 0.0
2016-Nov-29 18:30N 20°29' W 086°59'0 0.0
2016-Nov-29 17:32N 20°29' W 086°59'0 0.0
2016-Nov-29 16:32N 20°29' W 086°59'0 0.0
2016-Nov-29 15:31N 20°29' W 086°59'0 0.0
2016-Nov-29 14:31N 20°29' W 086°59'0 0.0
2016-Nov-29 13:28N 20°29' W 086°59'0 0.0
2016-Nov-29 06:34N 20°29' W 086°59'0 0.0
2016-Nov-29 05:33N 20°29' W 086°59'0 0.0
2016-Nov-29 04:30N 20°29' W 086°59'0 0.0
2016-Nov-29 03:32N 20°29' W 086°59'0 0.0
2016-Nov-29 02:32N 20°29' W 086°59'0 0.0
2016-Nov-29 01:31N 20°29' W 086°59'0 0.0
2016-Nov-29 00:31N 20°29' W 086°59'0 0.0
2016-Nov-28 23:33N 20°29' W 086°59'0 0.0
2016-Nov-28 22:33N 20°29' W 086°59'0 0.1
2016-Nov-28 21:33N 20°29' W 086°59'6 6.0
2016-Nov-28 20:33N 20°35' W 086°59'48014.7
2016-Nov-27 12:00N 27°12' W 091°54'19515.5 070 / 201020.010.8 20.016.719.0
2016-Nov-26 23:22N 29°20' W 094°41'6 1.0
2016-Nov-26 17:13N 29°19' W 094°48'0 0.0
2016-Nov-26 12:31N 29°19' W 094°48'55511.4
2016-Nov-24 12:00N 22°42' W 087°36'12911.9 050 / 201020.010.8 25.022.025.0
2016-Nov-24 01:08N 20°39' W 086°55'915.6
2016-Nov-24 00:33N 20°31' W 086°60'2 2.5
2016-Nov-23 23:33N 20°29' W 086°59'0 0.0
2016-Nov-23 22:32N 20°29' W 086°59'0 0.0
2016-Nov-23 21:33N 20°29' W 086°59'0 0.0
2016-Nov-23 20:32N 20°29' W 086°59'0 0.0
2016-Nov-23 19:32N 20°29' W 086°59'0 0.0
2016-Nov-23 18:31N 20°29' W 086°59'0 0.0
2016-Nov-23 17:31N 20°29' W 086°59'0 0.0
2016-Nov-23 16:33N 20°29' W 086°59'0 0.0
2016-Nov-23 15:33N 20°29' W 086°59'0 0.0
2016-Nov-23 14:33N 20°29' W 086°59'0 0.0
2016-Nov-23 13:32N 20°29' W 086°59'0 0.0
2016-Nov-23 12:34N 20°29' W 086°59'6 5.5
2016-Nov-23 11:33N 20°32' W 087°03'8 0.3
2016-Nov-22 03:14N 20°25' W 087°08'913.0
2016-Nov-22 02:33N 20°31' W 087°01'17712.2
2016-Nov-21 12:00N 23°18' W 088°06'37616.4 070 / 161020.010.8 22.018.924.0
2016-Nov-20 13:00N 28°00' W 092°42'   030 / 251018.010.8 16.0 2.826.0

Dump ship's entire track history